createdAt,value
2019-03-30T03:07:18.064Z,1.4
2019-03-30T03:08:07.857Z,1.4
2019-03-30T03:08:58.177Z,1.4
2019-03-30T03:09:48.222Z,1.3
2019-03-30T03:10:38.324Z,1.3
2019-03-30T03:11:28.345Z,1.3
2019-03-30T03:12:18.105Z,1.3
2019-03-30T03:13:08.457Z,1.3
2019-03-30T03:13:58.552Z,1.2
2019-03-30T03:14:48.561Z,1.3
2019-03-30T03:15:38.644Z,1.3
2019-03-30T03:16:30.567Z,1.3
2019-03-30T03:17:18.813Z,1.3
2019-03-30T03:18:09.033Z,1.3
2019-03-30T03:18:58.876Z,1.3
2019-03-30T03:19:48.381Z,1.2
2019-03-30T03:20:38.784Z,1.1
2019-03-30T03:21:28.518Z,1.1
2019-03-30T03:22:18.855Z,1.1
2019-03-30T03:23:08.885Z,1.2
2019-03-30T03:23:59.308Z,1.2
2019-03-30T03:24:48.747Z,1.2
2019-03-30T03:25:38.884Z,1.1
2019-03-30T03:26:28.677Z,1.1
2019-03-30T03:27:18.991Z,1.1
2019-03-30T03:28:09.546Z,1.2
2019-03-30T03:28:59.596Z,1.3
2019-03-30T03:29:49.724Z,1.3
2019-03-30T03:30:39.529Z,1.3
2019-03-30T03:31:30.144Z,1.3
2019-03-30T03:32:19.618Z,1.2
2019-03-30T03:33:10.044Z,1.2
2019-03-30T03:34:00.287Z,1.2
2019-03-30T03:34:50.098Z,1.1
2019-03-30T03:35:40.051Z,1.1
2019-03-30T03:36:30.098Z,1.1
2019-03-30T03:37:19.894Z,1.1
2019-03-30T03:38:10.007Z,1.1
2019-03-30T03:39:00.018Z,1.1
2019-03-30T03:39:50.131Z,1.1
2019-03-30T03:40:40.469Z,1.1
2019-03-30T03:41:30.603Z,1.1
2019-03-30T03:42:20.376Z,1.1
2019-03-30T03:43:10.352Z,1.1
2019-03-30T03:44:00.374Z,1.1
2019-03-30T03:44:50.475Z,1.1
2019-03-30T03:45:40.784Z,1.1
2019-03-30T03:46:29.997Z,1.1
2019-03-30T03:47:20.882Z,1.2
2019-03-30T03:48:10.952Z,1.2
2019-03-30T03:49:00.446Z,1.2
2019-03-30T03:49:51.100Z,1.3
2019-03-30T03:50:41.165Z,1.2
2019-03-30T03:51:31.205Z,1.2
2019-03-30T03:52:21.001Z,1.3
2019-03-30T03:53:11.023Z,1.3
2019-03-30T03:54:01.119Z,1.3
2019-03-30T03:54:51.480Z,1.3
2019-03-30T03:55:41.222Z,1.3
2019-03-30T03:56:31.650Z,1.3
2019-03-30T03:57:21.605Z,1.3
2019-03-30T03:58:11.663Z,1.4
2019-03-30T03:59:01.498Z,1.4
2019-03-30T03:59:51.884Z,1.3
2019-03-30T04:00:41.850Z,1.3
2019-03-30T04:01:31.927Z,1.4
2019-03-30T04:02:21.402Z,1.4
2019-03-30T04:03:12.084Z,1.4
2019-03-30T04:04:01.901Z,1.4
2019-03-30T04:04:52.190Z,1.4
2019-03-30T04:05:42.299Z,1.4
2019-03-30T04:06:32.289Z,1.4
2019-03-30T04:07:22.061Z,1.4
2019-03-30T04:08:12.151Z,1.5
2019-03-30T04:09:02.191Z,1.5
2019-03-30T04:09:52.094Z,1.5
2019-03-30T04:10:42.326Z,1.6
2019-03-30T04:11:32.228Z,1.6
2019-03-30T04:12:22.456Z,1.6
2019-03-30T04:13:12.497Z,1.6
2019-03-30T04:14:02.799Z,1.6
2019-03-30T04:14:52.365Z,1.6
2019-03-30T04:15:42.930Z,1.6
2019-03-30T04:16:32.715Z,1.6
2019-03-30T04:17:22.531Z,1.6
2019-03-30T04:18:12.733Z,1.6
2019-03-30T04:19:03.175Z,1.7
2019-03-30T04:19:53.381Z,1.7
2019-03-30T04:20:43.078Z,1.7
2019-03-30T04:21:46.795Z,1.8
2019-03-30T04:22:22.914Z,1.8
2019-03-30T04:23:12.990Z,1.8
2019-03-30T04:24:03.585Z,1.9
2019-03-30T04:24:53.182Z,1.9
2019-03-30T04:25:43.568Z,1.9
2019-03-30T04:26:33.363Z,1.9
2019-03-30T04:27:23.867Z,1.9
2019-03-30T04:28:13.940Z,1.9
2019-03-30T04:29:03.915Z,1.8
2019-03-30T04:29:53.979Z,1.8
2019-03-30T04:30:43.505Z,1.8
2019-03-30T04:31:34.080Z,1.8
2019-03-30T04:32:24.282Z,1.8
2019-03-30T04:33:14.068Z,1.9
2019-03-30T04:34:03.942Z,2
2019-03-30T04:34:54.140Z,2
2019-03-30T04:35:44.064Z,2
2019-03-30T04:36:34.149Z,2
2019-03-30T04:37:23.923Z,2.1
2019-03-30T04:38:17.237Z,2.2
2019-03-30T04:39:04.322Z,2.2
2019-03-30T04:39:54.364Z,2.1
2019-03-30T04:40:44.429Z,2.1
2019-03-30T04:41:34.762Z,2.1
2019-03-30T04:42:24.542Z,2.1
2019-03-30T04:43:14.930Z,2.1
2019-03-30T04:44:04.693Z,2.1
2019-03-30T04:44:55.029Z,2.1
2019-03-30T04:45:45.228Z,2.1
2019-03-30T04:46:34.898Z,2.1
2019-03-30T04:47:24.929Z,2.2
2019-03-30T04:48:15.250Z,2.3
2019-03-30T04:49:05.338Z,2.3
2019-03-30T04:49:55.116Z,2.3
2019-03-30T04:50:45.191Z,2.2
2019-03-30T04:51:35.486Z,2.3
2019-03-30T04:52:25.526Z,2.2
2019-03-30T04:53:15.594Z,2.3
2019-03-30T04:54:05.652Z,2.3
2019-03-30T04:54:55.721Z,2.4
2019-03-30T04:55:45.798Z,2.6
2019-03-30T04:56:35.846Z,2.6
2019-03-30T04:57:25.896Z,2.7
2019-03-30T04:58:15.696Z,2.8
2019-03-30T04:59:05.468Z,2.9
2019-03-30T04:59:56.086Z,2.9
2019-03-30T05:00:45.869Z,3
2019-03-30T05:01:36.265Z,3
2019-03-30T05:02:26.255Z,3
2019-03-30T05:03:16.044Z,3.1
2019-03-30T05:04:06.372Z,3.1
2019-03-30T05:04:56.445Z,3.2
2019-03-30T05:05:46.225Z,3.1
2019-03-30T05:06:36.570Z,3.1
2019-03-30T05:07:26.620Z,3.2
2019-03-30T05:08:16.384Z,3.1
2019-03-30T05:09:06.752Z,3.1
2019-03-30T05:09:56.785Z,3.2
2019-03-30T05:10:46.325Z,3.2
2019-03-30T05:11:36.910Z,3.1
2019-03-30T05:12:26.985Z,3.1
2019-03-30T05:13:16.767Z,3.1
2019-03-30T05:14:07.073Z,3.3
2019-03-30T05:14:57.137Z,3.3
2019-03-30T05:15:46.933Z,3.4
2019-03-30T05:16:37.340Z,3.4
2019-03-30T05:17:27.332Z,3.6
2019-03-30T05:18:16.857Z,3.6
2019-03-30T05:19:07.430Z,3.7
2019-03-30T05:19:57.499Z,3.8
2019-03-30T05:20:47.560Z,3.8
2019-03-30T05:21:37.620Z,3.8
2019-03-30T05:22:27.400Z,3.8
2019-03-30T05:23:17.275Z,3.8
2019-03-30T05:24:07.542Z,3.8
2019-03-30T05:24:57.902Z,3.8
2019-03-30T05:25:47.392Z,3.8
2019-03-30T05:26:37.979Z,3.7
2019-03-30T05:27:28.059Z,3.6
2019-03-30T05:28:18.248Z,3.5
2019-03-30T05:29:08.229Z,3.5
2019-03-30T05:29:58.269Z,3.5
2019-03-30T05:30:47.999Z,3.6
2019-03-30T05:31:37.820Z,3.5
2019-03-30T05:32:28.389Z,3.6
2019-03-30T05:33:18.451Z,3.6
2019-03-30T05:34:08.531Z,3.6
2019-03-30T05:34:58.639Z,3.8
2019-03-30T05:35:48.644Z,3.8
2019-03-30T05:36:38.777Z,3.9
2019-03-30T05:37:28.751Z,4
2019-03-30T05:38:18.816Z,4
2019-03-30T05:39:08.599Z,4
2019-03-30T05:39:58.662Z,4.1
2019-03-30T05:40:48.818Z,4.1
2019-03-30T05:41:39.077Z,4.2
2019-03-30T05:42:29.118Z,4.2
2019-03-30T05:43:18.963Z,4.3
2019-03-30T05:44:08.984Z,4.4
2019-03-30T05:45:00.971Z,4.4
2019-03-30T05:45:48.794Z,4.4
2019-03-30T05:46:38.845Z,4.4
2019-03-30T05:47:29.186Z,4.4
2019-03-30T05:48:19.525Z,4.6
2019-03-30T05:49:09.328Z,4.6
2019-03-30T05:49:59.715Z,4.6
2019-03-30T05:50:49.706Z,4.6
2019-03-30T05:51:39.495Z,4.6
2019-03-30T05:52:30.063Z,4.8
2019-03-30T05:53:19.661Z,4.9
2019-03-30T05:54:09.936Z,4.8
2019-03-30T05:55:00.019Z,4.9
2019-03-30T05:55:49.825Z,4.9
2019-03-30T05:56:40.134Z,5
2019-03-30T05:57:29.445Z,4.9
2019-03-30T05:58:19.972Z,4.8
2019-03-30T05:59:10.310Z,4.8
2019-03-30T05:59:59.825Z,4.8
2019-03-30T06:00:50.525Z,4.9
2019-03-30T06:01:39.935Z,4.8
2019-03-30T06:02:30.265Z,4.8
2019-03-30T06:03:20.125Z,4.9
2019-03-30T06:05:17.887Z,5.1
2019-03-30T06:06:07.680Z,5.3
2019-03-30T06:06:58.059Z,5.2
2019-03-30T06:07:48.147Z,5.3
2019-03-30T06:08:38.131Z,5.3
2019-03-30T06:09:27.651Z,5.4
2019-03-30T06:10:18.259Z,5.3
2019-03-30T06:11:08.290Z,5.3
2019-03-30T06:11:58.364Z,5.2
2019-03-30T06:12:47.871Z,5.3
2019-03-30T06:13:38.484Z,5.4
2019-03-30T06:14:28.271Z,5.5
2019-03-30T06:15:18.304Z,5.4
2019-03-30T06:16:08.661Z,5.6
2019-03-30T06:16:58.441Z,5.6
2019-03-30T06:17:48.504Z,5.6
2019-03-30T06:18:38.571Z,5.8
2019-03-30T06:19:28.697Z,5.8
2019-03-30T06:20:18.406Z,5.6
2019-03-30T06:21:09.011Z,5.8
2019-03-30T06:21:58.836Z,6
2019-03-30T06:22:48.854Z,6.3
2019-03-30T06:23:39.208Z,6.3
2019-03-30T06:24:28.688Z,6.2
2019-03-30T06:25:19.229Z,6.2
2019-03-30T06:26:09.464Z,6.1
2019-03-30T06:26:59.148Z,6.1
2019-03-30T06:27:49.199Z,6.1
2019-03-30T06:28:39.271Z,6.2
2019-03-30T06:29:29.336Z,6.3
2019-03-30T06:30:19.419Z,6.2
2019-03-30T06:31:09.455Z,5.8
2019-03-30T06:31:59.510Z,6.1
2019-03-30T06:32:49.850Z,6.2
2019-03-30T06:33:39.915Z,6.3
2019-03-30T06:34:29.953Z,6.3
2019-03-30T06:35:20.033Z,6.3
2019-03-30T06:36:10.090Z,6.4
2019-03-30T06:36:59.879Z,6.4
2019-03-30T06:37:49.937Z,6.6
2019-03-30T06:38:40.277Z,6.8
2019-03-30T06:39:30.042Z,7
2019-03-30T06:40:20.230Z,6.9
2019-03-30T06:41:10.503Z,6.8
2019-03-30T06:42:00.225Z,6.7
2019-03-30T06:42:50.307Z,6.9
2019-03-30T06:43:40.358Z,6.9
2019-03-30T06:44:30.127Z,6.9
2019-03-30T06:45:20.749Z,6.9
2019-03-30T06:46:10.797Z,6.8
2019-03-30T06:47:00.852Z,7
2019-03-30T06:47:50.943Z,7.4
2019-03-30T06:48:40.997Z,7.6
2019-03-30T06:49:31.035Z,7.8
2019-03-30T06:50:21.092Z,8.2
2019-03-30T06:51:11.159Z,8.4
2019-03-30T06:52:00.942Z,8.1
2019-03-30T06:53:01.453Z,8.1
2019-03-30T06:53:41.342Z,8.1
2019-03-30T06:54:31.389Z,8.3
2019-03-30T06:55:21.469Z,8.5
2019-03-30T06:56:11.548Z,8.6
2019-03-30T06:57:01.572Z,8.7
2019-03-30T06:57:51.640Z,8.7
2019-03-30T06:58:41.437Z,8.9
2019-03-30T06:59:31.765Z,9.1
2019-03-30T07:00:21.846Z,9.2
2019-03-30T07:01:11.674Z,9.1
2019-03-30T07:02:01.955Z,8.6
2019-03-30T07:02:51.999Z,8.6
2019-03-30T07:05:17.884Z,9.4
2019-03-30T07:06:07.621Z,9.6
2019-03-30T07:06:57.960Z,9.9
2019-03-30T07:07:48.042Z,10
2019-03-30T07:08:38.181Z,10.3
2019-03-30T07:09:28.142Z,10.4
2019-03-30T07:10:17.933Z,10.3
2019-03-30T07:11:23.563Z,10.5
2019-03-30T07:11:58.420Z,10.6
2019-03-30T07:12:48.084Z,10.2
2019-03-30T07:13:38.523Z,10.3
2019-03-30T07:14:28.486Z,10.1
2019-03-30T07:15:18.548Z,10.1
2019-03-30T07:16:08.618Z,10.6
2019-03-30T07:17:02.223Z,10.6
2019-03-30T07:17:48.730Z,10.7
2019-03-30T07:18:38.513Z,10.8
2019-03-30T07:19:28.855Z,10.8
2019-03-30T07:20:18.907Z,10.8
2019-03-30T07:21:08.953Z,10.9
2019-03-30T07:21:59.041Z,11.1
2019-03-30T07:22:52.026Z,11.2
2019-03-30T07:23:38.895Z,10.6
2019-03-30T07:24:29.195Z,10.5
2019-03-30T07:25:18.695Z,10.2
2019-03-30T07:26:09.320Z,10.4
2019-03-30T07:26:59.370Z,10.7
2019-03-30T07:27:49.443Z,10.9
2019-03-30T07:28:39.508Z,10.8
2019-03-30T07:29:29.565Z,10.7
2019-03-30T07:30:19.613Z,10.1
2019-03-30T07:31:09.390Z,9.8
2019-03-30T07:31:59.738Z,9.8
2019-03-30T07:32:50.043Z,9.9
2019-03-30T07:33:39.855Z,10
2019-03-30T07:34:29.940Z,9.9
2019-03-30T07:35:20.012Z,10.1
2019-03-30T07:36:10.030Z,10.1
2019-03-30T07:36:59.827Z,10
2019-03-30T07:37:49.864Z,9.9
2019-03-30T07:38:40.221Z,9.5
2019-03-30T07:39:30.597Z,9.7
2019-03-30T07:40:20.345Z,9.6
2019-03-30T07:41:10.137Z,9.6
2019-03-30T07:42:00.225Z,9.6
2019-03-30T07:42:50.242Z,9.9
2019-03-30T07:43:40.587Z,9.6
2019-03-30T07:44:30.355Z,9.7
2019-03-30T07:45:20.694Z,9.7
2019-03-30T07:46:10.482Z,9.7
2019-03-30T07:47:00.822Z,9.6
2019-03-30T07:47:50.327Z,9.6
2019-03-30T07:48:40.686Z,9.5
2019-03-30T07:49:31.008Z,9.4
2019-03-30T07:50:20.784Z,9.1
2019-03-30T07:51:11.106Z,9.1
2019-03-30T07:52:00.972Z,9.3
2019-03-30T07:52:51.276Z,9.6
2019-03-30T07:53:47.650Z,9.6
2019-03-30T07:54:31.110Z,9.9
2019-03-30T07:55:21.147Z,9.9
2019-03-30T07:56:12.004Z,10
2019-03-30T07:57:19.551Z,9.9
2019-03-30T07:57:51.792Z,9.9
2019-03-30T07:58:41.664Z,9.9
2019-03-30T07:59:31.756Z,9.7
2019-03-30T08:00:21.784Z,9.5
2019-03-30T08:01:11.590Z,9.7
2019-03-30T08:02:01.916Z,9.8
2019-03-30T08:02:51.975Z,9.9
2019-03-30T08:03:42.012Z,9.7
2019-03-30T08:04:32.173Z,9.9
2019-03-30T08:05:22.157Z,9.9
2019-03-30T08:06:12.240Z,9.8
2019-03-30T08:07:02.261Z,9.8
2019-03-30T08:07:52.320Z,9.8
2019-03-30T08:08:42.373Z,10.2
2019-03-30T08:09:32.160Z,10.3
2019-03-30T08:10:22.495Z,10.5
2019-03-30T08:11:15.828Z,10.4
2019-03-30T08:12:02.361Z,10.3
2019-03-30T08:12:52.707Z,10.2
2019-03-30T08:13:42.486Z,10.5
2019-03-30T08:14:32.790Z,10.7
2019-03-30T08:15:22.614Z,10.9
2019-03-30T08:16:12.375Z,11.3
2019-03-30T08:17:02.975Z,11.6
2019-03-30T08:17:53.058Z,11.8
2019-03-30T08:18:43.105Z,11.8
2019-03-30T08:19:32.687Z,11.7
2019-03-30T08:20:23.486Z,11.8
2019-03-30T08:21:13.277Z,12.1
2019-03-30T08:22:03.055Z,12.5
2019-03-30T08:22:53.405Z,12.8
2019-03-30T08:23:43.890Z,12.8
2019-03-30T08:24:33.252Z,12.6
2019-03-30T08:25:23.592Z,12.4
2019-03-30T08:26:13.630Z,12.1
2019-03-30T08:27:03.826Z,11.8
2019-03-30T08:27:53.767Z,11.7
2019-03-30T08:28:43.837Z,12.7
2019-03-30T08:29:33.880Z,13
2019-03-30T08:30:23.389Z,12.6
2019-03-30T08:31:14.020Z,12.3
2019-03-30T08:32:03.795Z,12.4
2019-03-30T08:32:53.944Z,12.7
2019-03-30T08:33:44.176Z,12.4
2019-03-30T08:34:34.251Z,12.9
2019-03-30T08:35:24.352Z,13.1
2019-03-30T08:36:14.371Z,13.3
2019-03-30T08:37:04.170Z,13.3
2019-03-30T08:37:54.482Z,13.3
2019-03-30T08:38:44.607Z,13.9
2019-03-30T08:39:34.319Z,14
2019-03-30T08:40:24.453Z,13.3
2019-03-30T08:41:14.833Z,13
2019-03-30T08:42:04.781Z,12.9
2019-03-30T08:42:54.838Z,13.1
2019-03-30T08:43:44.882Z,13.2
2019-03-30T08:44:34.951Z,13.1
2019-03-30T08:45:25.018Z,13.1
2019-03-30T08:46:14.821Z,13.4
2019-03-30T08:47:05.135Z,13.6
2019-03-30T08:47:54.917Z,13.8
2019-03-30T08:48:44.981Z,13.6
2019-03-30T08:49:35.307Z,13.5
2019-03-30T08:50:25.106Z,13.4
2019-03-30T08:51:15.449Z,13.4
2019-03-30T08:52:05.490Z,13
2019-03-30T08:52:55.563Z,13.1
2019-03-30T08:53:57.640Z,13.2
2019-03-30T08:54:35.671Z,13.1
2019-03-30T08:55:25.723Z,13.3
2019-03-30T08:56:15.533Z,13.6
2019-03-30T08:57:05.874Z,13.8
2019-03-30T08:57:56.135Z,13.9
2019-03-30T08:58:45.545Z,13.8
2019-03-30T08:59:36.034Z,12.9
2019-03-30T09:00:26.077Z,12.9
2019-03-30T09:02:05.670Z,13.4
2019-03-30T09:02:56.272Z,13.4
2019-03-30T09:03:46.093Z,13.6
2019-03-30T09:04:36.108Z,13.6
2019-03-30T09:05:26.165Z,13.9
2019-03-30T09:06:16.507Z,14.2
2019-03-30T09:07:06.320Z,13.9
2019-03-30T09:07:56.087Z,13.1
2019-03-30T09:08:46.688Z,13.1
2019-03-30T09:09:36.489Z,13.1
2019-03-30T09:10:26.558Z,13.4
2019-03-30T09:11:16.867Z,13.3
2019-03-30T09:12:06.500Z,13.5
2019-03-30T09:12:56.992Z,13.5
2019-03-30T09:13:47.062Z,13.6
2019-03-30T09:14:37.099Z,13.6
2019-03-30T09:15:27.162Z,13.8
2019-03-30T09:16:16.944Z,14.1
2019-03-30T09:17:07.294Z,14.1
2019-03-30T09:17:57.356Z,13.9
2019-03-30T09:18:47.136Z,13.9
2019-03-30T09:19:36.719Z,13.9
2019-03-30T09:20:27.099Z,13.9
2019-03-30T09:21:17.137Z,13.9
2019-03-30T09:22:07.739Z,14.3
2019-03-30T09:22:57.719Z,13.6
2019-03-30T09:23:47.559Z,13.8
2019-03-30T09:24:37.553Z,13.6
2019-03-30T09:25:27.889Z,13.6
2019-03-30T09:26:19.724Z,14.1
2019-03-30T09:27:07.936Z,14.4
2019-03-30T09:27:58.064Z,14.6
2019-03-30T09:28:48.139Z,14.6
2019-03-30T09:29:38.219Z,14.6
2019-03-30T09:30:28.013Z,14.5
2019-03-30T09:31:18.389Z,14.8
2019-03-30T09:32:17.641Z,14.3
2019-03-30T09:32:58.449Z,14.3
2019-03-30T09:33:48.262Z,14.2
2019-03-30T09:34:38.531Z,14.5
2019-03-30T09:35:28.332Z,14.3
2019-03-30T09:36:18.666Z,14.5
2019-03-30T09:37:08.199Z,14.6
2019-03-30T09:37:59.026Z,14.9
2019-03-30T09:38:48.848Z,14.7
2019-03-30T09:39:38.990Z,14.6
2019-03-30T09:40:28.125Z,14.5
2019-03-30T09:41:19.016Z,14.6
2019-03-30T09:42:09.090Z,15.1
2019-03-30T09:42:58.647Z,15.1
2019-03-30T09:43:49.216Z,14.5
2019-03-30T09:44:39.248Z,13.8
2019-03-30T09:45:29.403Z,13.7
2019-03-30T09:46:19.387Z,14.1
2019-03-30T09:47:08.904Z,14.8
2019-03-30T09:47:59.508Z,14.8
2019-03-30T09:48:49.280Z,14.8
2019-03-30T09:49:39.085Z,14.9
2019-03-30T09:50:29.402Z,14.4
2019-03-30T09:51:19.735Z,14.6
2019-03-30T09:52:09.520Z,14.4
2019-03-30T09:52:59.602Z,13.9
2019-03-30T09:53:49.928Z,13.8
2019-03-30T09:54:39.734Z,14.3
2019-03-30T09:55:30.570Z,14.9
2019-03-30T09:56:19.293Z,14.9
2019-03-30T09:57:10.214Z,14.5
2019-03-30T09:58:00.229Z,14.8
2019-03-30T09:58:49.807Z,14.9
2019-03-30T09:59:40.354Z,14.3
2019-03-30T10:00:30.497Z,13.9
2019-03-30T10:01:20.454Z,14.7
2019-03-30T10:02:10.532Z,14.8
2019-03-30T10:03:00.109Z,14.4
2019-03-30T10:03:50.730Z,14.8
2019-03-30T10:06:17.412Z,13.7
2019-03-30T10:07:07.526Z,13.6
2019-03-30T10:07:57.824Z,13.3
2019-03-30T10:08:47.882Z,13.4
2019-03-30T10:09:37.671Z,13.8
2019-03-30T10:10:27.719Z,13.4
2019-03-30T10:11:18.044Z,13.5
2019-03-30T10:12:07.554Z,13.8
2019-03-30T10:12:58.165Z,13.8
2019-03-30T10:13:48.222Z,13.9
2019-03-30T10:14:37.726Z,14.1
2019-03-30T10:15:28.070Z,13.8
2019-03-30T10:16:18.136Z,13.4
2019-03-30T10:17:08.185Z,14.1
2019-03-30T10:17:58.243Z,14.1
2019-03-30T10:18:48.583Z,14.5
2019-03-30T10:19:38.368Z,15
2019-03-30T10:20:28.703Z,14.9
2019-03-30T10:21:18.576Z,14.9
2019-03-30T10:22:08.905Z,14.5
2019-03-30T10:22:58.703Z,14.7
2019-03-30T10:23:48.952Z,15.1
2019-03-30T10:24:41.418Z,15.2
2019-03-30T10:25:28.789Z,15.8
2019-03-30T10:26:19.118Z,16.3
2019-03-30T10:27:09.275Z,16.4
2019-03-30T10:27:59.255Z,16.3
2019-03-30T10:28:49.863Z,16.1
2019-03-30T10:29:39.379Z,15.9
2019-03-30T10:30:29.143Z,16.1
2019-03-30T10:31:19.202Z,15.4
2019-03-30T10:32:09.327Z,15.1
2019-03-30T10:32:59.170Z,15.4
2019-03-30T10:33:49.127Z,15.9
2019-03-30T10:34:42.463Z,15.5
2019-03-30T10:35:29.585Z,15.2
2019-03-30T10:36:19.562Z,15.1
2019-03-30T10:37:09.948Z,15.5
2019-03-30T10:37:59.974Z,15.7
2019-03-30T10:38:49.482Z,15.9
2019-03-30T10:39:39.527Z,15.9
2019-03-30T10:40:30.144Z,15.8
2019-03-30T10:41:20.222Z,15.8
2019-03-30T10:42:09.725Z,15.5
2019-03-30T10:43:00.339Z,15.3
2019-03-30T10:43:50.406Z,15.3
2019-03-30T10:44:40.173Z,14.7
2019-03-30T10:45:30.239Z,15.3
2019-03-30T10:46:20.002Z,15.4
2019-03-30T10:47:10.644Z,15.6
2019-03-30T10:48:00.676Z,15.7
2019-03-30T10:48:50.533Z,16
2019-03-30T10:49:40.814Z,16.1
2019-03-30T10:50:30.874Z,15.7
2019-03-30T10:51:21.001Z,15.8
2019-03-30T10:52:11.020Z,16.2
2019-03-30T10:53:01.117Z,16.3
2019-03-30T10:53:51.107Z,16.4
2019-03-30T10:54:55.769Z,16.9
2019-03-30T10:55:30.958Z,16.3
2019-03-30T10:56:21.304Z,16.3
2019-03-30T10:57:11.347Z,16.6
2019-03-30T10:58:01.856Z,16.8
2019-03-30T10:58:51.466Z,17.3
2019-03-30T10:59:41.528Z,16.9
2019-03-30T11:00:31.318Z,16.6
2019-03-30T11:01:21.353Z,16.6
2019-03-30T11:02:11.713Z,16.4
2019-03-30T11:03:01.760Z,16.9
2019-03-30T11:03:51.838Z,16.8
2019-03-30T11:04:41.120Z,16.9
2019-03-30T11:06:21.779Z,16.9
2019-03-30T11:08:02.126Z,17.2
2019-03-30T11:08:51.937Z,17.3
2019-03-30T11:09:42.242Z,16.3
2019-03-30T11:10:32.328Z,16.3
2019-03-30T11:11:22.424Z,16.1
2019-03-30T11:12:12.420Z,16.2
2019-03-30T11:13:02.273Z,16.6
2019-03-30T11:13:52.552Z,16.2
2019-03-30T11:14:42.705Z,16.4
2019-03-30T11:15:36.527Z,16.5
2019-03-30T11:16:22.730Z,16.3
2019-03-30T11:17:12.787Z,16.1
2019-03-30T11:18:02.837Z,16.1
2019-03-30T11:18:52.913Z,16.1
2019-03-30T11:19:42.692Z,16
2019-03-30T11:20:33.032Z,16
2019-03-30T11:21:23.079Z,16.4
2019-03-30T11:22:13.149Z,16.5
2019-03-30T11:23:03.317Z,16.2
2019-03-30T11:23:52.435Z,16.8
2019-03-30T11:24:43.062Z,16.7
2019-03-30T11:25:33.114Z,16.9
2019-03-30T11:26:23.462Z,17.3
2019-03-30T11:27:13.237Z,17.6
2019-03-30T11:28:03.554Z,17.4
2019-03-30T11:31:23.915Z,16.6
2019-03-30T11:32:13.883Z,16.9
2019-03-30T11:33:54.068Z,16.9
2019-03-30T11:35:34.178Z,16.8
2019-03-30T11:36:24.176Z,16.9
2019-03-30T11:37:14.258Z,16.9
2019-03-30T11:38:04.336Z,17.3
2019-03-30T11:38:54.359Z,17.1
2019-03-30T11:39:44.489Z,16.9
2019-03-30T11:40:34.474Z,16.8
2019-03-30T11:41:27.831Z,16.4
2019-03-30T11:42:14.586Z,16.8
2019-03-30T11:43:04.671Z,16.9
2019-03-30T11:43:54.728Z,17.1
2019-03-30T11:44:44.778Z,17.3
2019-03-30T11:45:34.853Z,18
2019-03-30T11:46:24.638Z,18.2
2019-03-30T11:47:14.963Z,17.9
2019-03-30T11:48:04.805Z,17.2
2019-03-30T11:49:44.938Z,16.4
2019-03-30T11:50:34.935Z,16.6
2019-03-30T11:51:25.239Z,16.9
2019-03-30T11:52:15.017Z,16.6
2019-03-30T11:53:05.380Z,16.1
2019-03-30T11:53:55.145Z,15.9
2019-03-30T11:54:45.504Z,15.9
2019-03-30T11:55:35.076Z,15.8
2019-03-30T11:56:25.152Z,15.1
2019-03-30T11:57:15.203Z,15.8
2019-03-30T11:58:05.277Z,16.3
2019-03-30T11:58:55.330Z,16.4
2019-03-30T11:59:45.367Z,16.4
2019-03-30T12:00:34.912Z,16.4
2019-03-30T12:01:25.574Z,16.8
2019-03-30T12:02:29.949Z,16.6
2019-03-30T12:03:05.625Z,16
2019-03-30T12:03:55.114Z,16.3
2019-03-30T12:06:16.736Z,16.9
2019-03-30T12:07:07.177Z,17.3
2019-03-30T12:07:57.300Z,17.6
2019-03-30T12:08:48.056Z,17.6
2019-03-30T12:09:37.413Z,17.6
2019-03-30T12:10:41.811Z,17.7
2019-03-30T12:11:17.749Z,17.4
2019-03-30T12:12:08.115Z,17.2
2019-03-30T12:12:58.121Z,16.4
2019-03-30T12:13:48.361Z,16.4
2019-03-30T12:14:38.276Z,16.6
2019-03-30T12:15:28.291Z,17.1
2019-03-30T12:16:32.897Z,17.2
2019-03-30T12:17:08.386Z,17.4
2019-03-30T12:17:58.873Z,16.8
2019-03-30T12:18:49.205Z,16.6
2019-03-30T12:19:38.557Z,16.4
2019-03-30T12:20:28.613Z,16.4
2019-03-30T12:21:18.415Z,17.1
2019-03-30T12:22:08.446Z,17.5
2019-03-30T12:22:58.801Z,17.9
2019-03-30T12:23:48.581Z,18.1
2019-03-30T12:24:38.102Z,18.3
2019-03-30T12:25:38.794Z,18.6
2019-03-30T12:26:19.046Z,18.1
2019-03-30T12:27:08.815Z,18.3
2019-03-30T12:27:58.619Z,18
2019-03-30T12:28:48.968Z,17.8
2019-03-30T12:29:39.993Z,17.8
2019-03-30T12:30:29.546Z,17.4
2019-03-30T12:31:19.390Z,17.5
2019-03-30T12:32:09.463Z,17.1
2019-03-30T12:32:59.253Z,16.6
2019-03-30T12:33:49.329Z,16.1
2019-03-30T12:34:39.625Z,15.9
2019-03-30T12:35:29.510Z,16.7
2019-03-30T12:36:19.757Z,17.3
2019-03-30T12:37:09.833Z,17.5
2019-03-30T12:37:59.913Z,17.8
2019-03-30T12:38:49.942Z,17.3
2019-03-30T12:39:39.730Z,17.4
2019-03-30T12:40:30.071Z,17.2
2019-03-30T12:41:19.870Z,16.6
2019-03-30T12:42:10.242Z,16
2019-03-30T12:42:59.977Z,16.1
2019-03-30T12:43:49.834Z,16.4
2019-03-30T12:44:39.554Z,17.1
2019-03-30T12:46:20.204Z,17.2
2019-03-30T12:47:13.061Z,17.2
2019-03-30T12:48:00.610Z,17.6
2019-03-30T12:48:50.493Z,16.7
2019-03-30T12:49:40.028Z,16.5
2019-03-30T12:50:30.811Z,16.8
2019-03-30T14:08:07.088Z,17.4
2019-03-30T14:08:56.948Z,17.3
2019-03-30T14:09:47.214Z,17.4
2019-03-30T14:10:40.893Z,17.3
2019-03-30T14:11:27.326Z,17.2
2019-03-30T14:12:17.381Z,16.4
2019-03-30T14:13:07.438Z,16.5
2019-03-30T14:13:57.223Z,16.6
2019-03-30T14:14:47.033Z,16.4
2019-03-30T14:15:37.358Z,16.4
2019-03-30T14:16:27.196Z,16.7
2019-03-30T14:17:21.135Z,16.4
2019-03-30T14:18:07.549Z,16.9
2019-03-30T14:18:57.605Z,17.1
2019-03-30T14:19:47.218Z,17.1
2019-03-30T14:20:37.978Z,17.3
2019-03-30T14:21:28.038Z,16.9
2019-03-30T14:22:18.105Z,16.4
2019-03-30T14:23:08.186Z,16.1
2019-03-30T14:23:58.258Z,16.4
2019-03-30T14:24:48.289Z,16.4
2019-03-30T14:25:38.356Z,16.2
2019-03-30T14:26:34.037Z,16.3
2019-03-30T14:27:18.189Z,16.3
2019-03-30T14:28:08.254Z,15.9
2019-03-30T14:28:58.597Z,15.8
2019-03-30T14:29:48.652Z,15.6
2019-03-30T14:30:38.731Z,15.8
2019-03-30T14:31:28.786Z,16.3
2019-03-30T14:32:18.839Z,16.1
2019-03-30T14:33:08.913Z,16.4
2019-03-30T14:33:58.408Z,16.2
2019-03-30T14:34:49.028Z,16.3
2019-03-30T14:35:39.106Z,16.5
2019-03-30T14:36:28.600Z,16.6
2019-03-30T14:37:19.192Z,16.4
2019-03-30T14:38:08.993Z,16
2019-03-30T14:38:59.376Z,16.2
2019-03-30T14:39:49.388Z,16.3
2019-03-30T14:40:39.185Z,16.3
2019-03-30T14:41:29.245Z,16.2
2019-03-30T14:42:19.297Z,16.1
2019-03-30T14:43:09.371Z,16
2019-03-30T14:43:59.429Z,15.8
2019-03-30T14:44:49.764Z,16
2019-03-30T14:45:39.850Z,15.9
2019-03-30T14:46:29.930Z,15.8
2019-03-30T14:47:19.669Z,15.9
2019-03-30T14:48:10.023Z,16.3
2019-03-30T14:48:59.790Z,15.9
2019-03-30T14:49:50.135Z,15.9
2019-03-30T14:50:39.898Z,15.9
2019-03-30T14:51:29.979Z,15.8
2019-03-30T14:52:20.352Z,15.6
2019-03-30T14:53:10.718Z,15.7
2019-03-30T14:54:00.512Z,15.6
2019-03-30T14:54:55.672Z,15.3
2019-03-30T14:55:42.260Z,15.3
2019-03-30T14:56:44.420Z,15.4
2019-03-30T14:57:20.899Z,15.3
2019-03-30T14:58:11.362Z,15.4
2019-03-30T14:59:16.114Z,15.8
2019-03-30T14:59:51.354Z,15.9
2019-03-30T15:00:42.561Z,15.9
2019-03-30T15:01:31.716Z,15.9
2019-03-30T15:02:21.247Z,15.9
2019-03-30T15:03:11.682Z,16
2019-03-30T15:04:01.649Z,15.3
2019-03-30T15:04:51.448Z,15.4
2019-03-30T15:05:41.566Z,15.6
2019-03-30T15:06:31.902Z,15.6
2019-03-30T15:07:21.336Z,15.5
2019-03-30T15:08:11.411Z,15.5
2019-03-30T15:09:02.009Z,15.5
2019-03-30T15:09:52.075Z,15.6
2019-03-30T15:10:41.856Z,15.7
2019-03-30T15:11:32.191Z,15.8
2019-03-30T15:12:22.259Z,15.6
2019-03-30T15:13:11.856Z,15.8
2019-03-30T15:14:01.891Z,15.8
2019-03-30T15:14:51.956Z,15.5
2019-03-30T15:15:42.036Z,15.5
2019-03-30T15:16:32.153Z,15.5
2019-03-30T15:17:22.147Z,15.5
2019-03-30T15:18:11.933Z,15.6
2019-03-30T15:19:02.349Z,15.4
2019-03-30T15:19:52.088Z,15.5
2019-03-30T15:20:42.382Z,15.6
2019-03-30T15:21:32.183Z,15.6
2019-03-30T15:22:22.713Z,15.8
2019-03-30T15:23:12.763Z,15.6
2019-03-30T15:24:03.152Z,15.4
2019-03-30T15:24:52.890Z,15.3
2019-03-30T15:25:42.973Z,15.3
2019-03-30T15:26:33.320Z,15.4
2019-03-30T15:27:23.343Z,15.5
2019-03-30T15:28:13.008Z,15.6
2019-03-30T15:29:03.203Z,15.8
2019-03-30T15:29:53.543Z,15.6
2019-03-30T15:30:43.587Z,15.9
2019-03-30T15:31:33.377Z,16
2019-03-30T15:32:23.720Z,15.9
2019-03-30T15:33:13.540Z,15.9
2019-03-30T15:34:03.850Z,16.1
2019-03-30T15:34:53.960Z,16.4
2019-03-30T15:35:43.975Z,16.5
2019-03-30T15:36:34.066Z,16.6
2019-03-30T15:37:23.529Z,16.8
2019-03-30T15:38:14.152Z,16.3
2019-03-30T15:39:04.207Z,16.4
2019-03-30T15:39:54.267Z,16.3
2019-03-30T15:40:44.065Z,16.5
2019-03-30T15:41:34.110Z,16.7
2019-03-30T15:42:24.244Z,16.7
2019-03-30T15:43:14.522Z,16.6
2019-03-30T15:44:04.582Z,16.6
2019-03-30T15:44:54.152Z,16.8
2019-03-30T15:45:44.682Z,16.6
2019-03-30T15:46:34.739Z,16.3
2019-03-30T15:47:24.814Z,16.1
2019-03-30T15:48:14.874Z,16
2019-03-30T15:49:04.684Z,16.1
2019-03-30T15:49:54.739Z,16.1
2019-03-30T15:50:44.799Z,16.1
2019-03-30T15:51:38.530Z,16
2019-03-30T15:52:25.174Z,16.1
2019-03-30T15:53:15.245Z,16.3
2019-03-30T15:54:05.296Z,16.4
2019-03-30T15:54:55.098Z,16.2